Cominto, Arkansas
Current Conditions -  °F | °C
As of 9:53 PM on Tuesday 21 Oct 2014 (Local Time) from KLLQ Reporting Station
Clear Clear  
Wind Chill: 58°   Ceiling: Unl
Heat Index: 58°   Visibility: 10mi
Dew Point: 56°   Wind: 0mph
Humidity: 93%   Direction: NA
Pressure: 30.09"   Gusts: NA
Location:  33.5819°N, 91.7907°W
Report Text: KLLQ 220253Z AUTO 00000KT 10SM CLR 14/13 A3009 RMK AO2 RAB04E14 SLP186 P0000 60000 T01440133 53018
Loading
Personal Weather Stations






























Interactive Weather Map New forecast layout! Learn more

10-Day Weather Forecast

Advertisements
Track Severe Weather on mobile